createdAt,value
2023-05-17T00:01:15.688Z,83.80
2023-05-17T00:03:43.645Z,83.70
2023-05-17T00:06:11.685Z,83.80
2023-05-17T00:08:39.630Z,83.70
2023-05-17T00:11:07.696Z,83.80
2023-05-17T00:13:35.662Z,83.60
2023-05-17T00:16:03.607Z,83.60
2023-05-17T00:18:33.006Z,84.00
2023-05-17T00:21:01.194Z,84.10
2023-05-17T00:23:29.140Z,84.10
2023-05-17T00:25:57.058Z,84.20
2023-05-17T00:28:25.068Z,84.40
2023-05-17T00:30:53.016Z,84.50
2023-05-17T00:33:20.962Z,84.40
2023-05-17T00:35:50.291Z,84.50
2023-05-17T00:38:18.194Z,84.50
2023-05-17T00:40:46.216Z,84.80
2023-05-17T00:43:14.169Z,85.00
2023-05-17T00:45:42.108Z,85.20
2023-05-17T00:48:10.156Z,85.20
2023-05-17T00:50:38.506Z,85.20
2023-05-17T00:53:08.174Z,85.00
2023-05-17T00:55:36.726Z,84.90
2023-05-17T00:58:04.916Z,84.80
2023-05-17T01:00:33.207Z,84.80
2023-05-17T01:03:01.746Z,84.70
2023-05-17T01:05:30.794Z,84.60
2023-05-17T01:07:58.934Z,84.50
2023-05-17T01:10:36.810Z,84.50
2023-05-17T01:13:10.128Z,84.40
2023-05-17T01:15:42.873Z,84.60
2023-05-17T01:18:16.259Z,84.70
2023-05-17T01:20:46.188Z,84.80
2023-05-17T01:23:32.534Z,84.60
2023-05-17T01:26:11.854Z,84.90
2023-05-17T01:28:42.793Z,84.50
2023-05-17T01:31:12.315Z,84.50
2023-05-17T01:33:41.175Z,84.40
2023-05-17T01:36:09.860Z,84.40
2023-05-17T01:38:37.772Z,84.40
2023-05-17T01:41:11.758Z,84.50
2023-05-17T01:43:47.261Z,84.70
2023-05-17T01:46:20.748Z,84.70
2023-05-17T01:49:01.478Z,84.90
2023-05-17T01:51:34.919Z,84.90
2023-05-17T01:54:09.419Z,84.90
2023-05-17T01:56:39.918Z,85.00
2023-05-17T01:59:10.879Z,85.30
2023-05-17T02:01:40.615Z,85.70
2023-05-17T02:04:08.642Z,85.50
2023-05-17T02:06:36.820Z,85.80
2023-05-17T02:09:05.089Z,86.00
2023-05-17T02:11:33.249Z,86.00
2023-05-17T02:14:01.147Z,86.30
2023-05-17T02:16:30.778Z,86.10
2023-05-17T02:18:58.749Z,85.90
2023-05-17T02:21:26.711Z,86.10
2023-05-17T02:23:54.625Z,86.50
2023-05-17T02:26:22.584Z,86.50
2023-05-17T02:28:50.540Z,86.50
2023-05-17T02:31:18.481Z,86.40
2023-05-17T02:33:47.995Z,86.70
2023-05-17T02:36:16.097Z,86.90
2023-05-17T02:38:44.041Z,86.90
2023-05-17T02:41:12.013Z,87.00
2023-05-17T02:43:39.916Z,86.90
2023-05-17T02:46:07.971Z,86.80
2023-05-17T02:48:35.901Z,86.80
2023-05-17T02:51:05.638Z,86.90
2023-05-17T02:53:33.545Z,86.80
2023-05-17T02:56:01.472Z,86.90
2023-05-17T02:58:29.384Z,87.00
2023-05-17T03:00:57.295Z,86.90
2023-05-17T03:03:25.278Z,87.10
2023-05-17T03:05:53.271Z,87.00
2023-05-17T03:08:22.568Z,87.10
2023-05-17T03:10:51.338Z,87.10
2023-05-17T03:13:19.256Z,87.10
2023-05-17T03:15:47.172Z,87.10
2023-05-17T03:18:15.142Z,87.20
2023-05-17T03:20:43.070Z,87.40
2023-05-17T03:23:11.017Z,87.30
2023-05-17T03:25:40.279Z,87.50
2023-05-17T03:28:08.191Z,87.60
2023-05-17T03:30:36.171Z,87.70
2023-05-17T03:33:04.292Z,88.00
2023-05-17T03:35:32.308Z,88.20
2023-05-17T03:38:00.368Z,88.00
2023-05-17T03:40:28.301Z,88.10
2023-05-17T03:42:57.630Z,88.30
2023-05-17T03:45:25.581Z,88.20
2023-05-17T03:47:53.620Z,88.50
2023-05-17T03:50:21.549Z,88.50
2023-05-17T03:52:49.493Z,88.50
2023-05-17T03:55:17.460Z,88.80
2023-05-17T03:57:45.436Z,89.30
2023-05-17T04:00:21.282Z,89.10
2023-05-17T04:02:49.377Z,89.20
2023-05-17T04:05:17.629Z,89.10
2023-05-17T04:07:45.660Z,89.00
2023-05-17T04:10:13.639Z,88.70
2023-05-17T04:12:41.565Z,88.50
2023-05-17T04:15:10.402Z,88.40
2023-05-17T04:17:39.680Z,88.40
2023-05-17T04:20:08.423Z,88.30
2023-05-17T04:22:38.473Z,88.20
2023-05-17T04:25:08.282Z,87.90
2023-05-17T04:27:36.425Z,88.00
2023-05-17T04:30:04.729Z,88.10
2023-05-17T04:32:34.262Z,88.10
2023-05-17T04:35:03.913Z,88.20
2023-05-17T04:37:31.935Z,88.10
2023-05-17T04:40:00.140Z,88.10
2023-05-17T04:42:28.193Z,88.00
2023-05-17T04:44:57.720Z,87.40
2023-05-17T04:47:25.936Z,87.10
2023-05-17T04:49:53.997Z,87.00
2023-05-17T04:52:23.293Z,86.10
2023-05-17T04:54:52.180Z,85.90
2023-05-17T04:57:21.397Z,85.20
2023-05-17T04:59:49.567Z,85.20
2023-05-17T05:02:17.523Z,84.10
2023-05-17T05:04:45.600Z,84.50
2023-05-17T05:07:13.697Z,85.10
2023-05-17T05:09:43.006Z,84.60
2023-05-17T05:12:11.302Z,84.50
2023-05-17T05:14:39.288Z,84.00
2023-05-17T05:17:07.205Z,82.60
2023-05-17T05:19:35.206Z,83.30
2023-05-17T05:22:03.192Z,82.80
2023-05-17T05:24:31.212Z,83.10
2023-05-17T05:27:00.579Z,82.90
2023-05-17T05:29:28.550Z,82.50
2023-05-17T05:31:56.572Z,81.10
2023-05-17T05:34:24.492Z,80.70
2023-05-17T05:36:52.677Z,81.20
2023-05-17T05:39:20.624Z,80.70
2023-05-17T05:41:48.597Z,80.20
2023-05-17T05:44:17.902Z,80.40
2023-05-17T05:46:45.931Z,80.10
2023-05-17T05:49:13.914Z,79.10
2023-05-17T05:51:41.864Z,79.10
2023-05-17T05:54:10.011Z,79.70
2023-05-17T05:56:37.955Z,79.80
2023-05-17T05:59:05.935Z,78.60
2023-05-17T06:01:35.592Z,79.20
2023-05-17T06:04:03.532Z,76.90
2023-05-17T06:06:31.583Z,77.50
2023-05-17T06:08:59.836Z,76.40
2023-05-17T06:11:28.214Z,76.30
2023-05-17T06:13:56.172Z,75.20
2023-05-17T06:16:24.107Z,77.50
2023-05-17T06:18:53.600Z,75.00
2023-05-17T06:21:21.682Z,76.10
2023-05-17T06:23:49.904Z,75.40
2023-05-17T06:26:17.897Z,73.50
2023-05-17T06:28:46.047Z,75.20
2023-05-17T06:31:13.998Z,74.20
2023-05-17T06:33:41.993Z,70.30
2023-05-17T06:36:11.475Z,74.50
2023-05-17T06:38:39.428Z,71.90
2023-05-17T06:41:07.536Z,68.50
2023-05-17T06:43:37.131Z,68.80
2023-05-17T06:46:05.789Z,67.10
2023-05-17T06:48:33.818Z,69.90
2023-05-17T06:51:02.130Z,66.20
2023-05-17T06:53:31.445Z,68.80
2023-05-17T06:55:59.374Z,68.70
2023-05-17T06:58:27.559Z,67.80
2023-05-17T07:00:55.641Z,65.90
2023-05-17T07:03:23.660Z,67.20
2023-05-17T07:05:51.675Z,65.90
2023-05-17T07:08:19.616Z,64.80
2023-05-17T07:10:48.947Z,65.60
2023-05-17T07:13:17.549Z,64.20
2023-05-17T07:15:45.685Z,62.80
2023-05-17T07:18:13.849Z,64.00
2023-05-17T07:20:41.887Z,66.10
2023-05-17T07:23:09.854Z,62.20
2023-05-17T07:25:38.729Z,62.40
2023-05-17T07:28:08.210Z,57.60
2023-05-17T07:30:36.333Z,61.80
2023-05-17T07:33:04.404Z,59.30
2023-05-17T07:35:32.511Z,58.30
2023-05-17T07:38:00.697Z,58.00
2023-05-17T07:40:29.214Z,56.90
2023-05-17T07:42:57.161Z,56.90
2023-05-17T07:45:26.700Z,56.00
2023-05-17T07:47:54.862Z,58.70
2023-05-17T07:50:23.295Z,55.50
2023-05-17T07:52:51.804Z,56.70
2023-05-17T07:55:20.565Z,53.30
2023-05-17T07:57:48.628Z,53.50
2023-05-17T08:00:19.527Z,57.70
2023-05-17T08:02:48.864Z,55.70
2023-05-17T08:05:16.834Z,55.70
2023-05-17T08:07:44.804Z,54.90
2023-05-17T08:10:12.819Z,58.50
2023-05-17T08:12:40.875Z,54.40
2023-05-17T08:15:09.512Z,56.20
2023-05-17T08:17:37.513Z,55.20
2023-05-17T08:20:08.575Z,53.90
2023-05-17T08:22:36.664Z,50.70
2023-05-17T08:25:04.819Z,53.20
2023-05-17T08:27:33.101Z,51.90
2023-05-17T08:30:01.088Z,52.90
2023-05-17T08:32:29.255Z,57.00
2023-05-17T08:34:58.355Z,53.90
2023-05-17T08:37:27.709Z,54.00
2023-05-17T08:39:55.720Z,54.40
2023-05-17T08:42:25.273Z,54.80
2023-05-17T08:44:54.755Z,53.50
2023-05-17T08:47:30.000Z,46.70
2023-05-17T08:50:00.355Z,48.90
2023-05-17T08:52:32.404Z,51.50
2023-05-17T08:55:05.137Z,49.50
2023-05-17T08:57:36.180Z,50.40
2023-05-17T09:00:06.824Z,51.60
2023-05-17T09:02:35.137Z,51.10
2023-05-17T09:05:03.895Z,51.00
2023-05-17T09:07:33.269Z,49.90
2023-05-17T09:10:05.575Z,50.20
2023-05-17T09:12:34.793Z,46.10
2023-05-17T09:15:16.908Z,47.70
2023-05-17T09:17:51.753Z,53.40
2023-05-17T09:20:25.195Z,47.80
2023-05-17T09:23:01.952Z,48.50
2023-05-17T09:25:31.580Z,49.50
2023-05-17T09:28:02.386Z,49.50
2023-05-17T09:30:31.506Z,47.60
2023-05-17T09:32:59.843Z,46.00
2023-05-17T09:35:31.589Z,44.50
2023-05-17T09:38:07.564Z,46.00
2023-05-17T09:40:39.027Z,43.10
2023-05-17T09:43:07.408Z,47.10
2023-05-17T09:45:36.031Z,46.00
2023-05-17T09:48:14.902Z,46.30
2023-05-17T09:50:47.267Z,51.10
2023-05-17T09:53:26.161Z,46.70
2023-05-17T09:55:55.270Z,48.90
2023-05-17T09:58:24.923Z,46.10
2023-05-17T10:00:55.110Z,48.90
2023-05-17T10:03:23.686Z,48.30
2023-05-17T10:05:57.534Z,44.00
2023-05-17T10:08:28.312Z,44.30
2023-05-17T10:10:57.539Z,42.00
2023-05-17T10:13:31.758Z,41.40
2023-05-17T10:16:01.697Z,41.60
2023-05-17T10:18:31.106Z,41.30
2023-05-17T10:21:01.528Z,42.30
2023-05-17T10:23:32.316Z,46.40
2023-05-17T10:26:01.416Z,41.80
2023-05-17T10:28:33.103Z,45.10
2023-05-17T10:31:02.342Z,41.00
2023-05-17T10:33:33.169Z,43.40
2023-05-17T10:36:06.336Z,45.30
2023-05-17T10:38:42.315Z,41.90
2023-05-17T10:41:12.781Z,42.30
2023-05-17T10:43:42.698Z,42.90
2023-05-17T10:46:16.338Z,46.50
2023-05-17T10:48:45.417Z,46.00
2023-05-17T10:51:13.434Z,44.40
2023-05-17T10:54:12.373Z,41.80
2023-05-17T10:56:42.575Z,43.00
2023-05-17T10:59:22.668Z,42.90
2023-05-17T11:01:54.451Z,46.10
2023-05-17T11:04:25.593Z,42.60
2023-05-17T11:06:57.282Z,42.40
2023-05-17T11:09:27.805Z,41.40
2023-05-17T11:12:06.590Z,40.60
2023-05-17T11:14:53.233Z,43.20
2023-05-17T11:17:22.307Z,45.10
2023-05-17T11:19:56.365Z,42.80
2023-05-17T11:22:24.695Z,43.50
2023-05-17T11:24:57.541Z,44.30
2023-05-17T11:27:28.765Z,45.20
2023-05-17T11:29:58.376Z,41.70
2023-05-17T11:32:29.322Z,44.80
2023-05-17T11:35:01.071Z,44.00
2023-05-17T11:37:29.787Z,43.40
2023-05-17T11:40:07.068Z,45.40
2023-05-17T11:42:35.697Z,43.10
2023-05-17T11:45:03.911Z,39.60
2023-05-17T11:47:32.349Z,42.80
2023-05-17T11:50:02.861Z,42.60
2023-05-17T11:52:31.468Z,42.50
2023-05-17T11:55:00.603Z,44.40
2023-05-17T11:57:33.553Z,41.10
2023-05-17T12:00:02.523Z,43.60
2023-05-17T12:02:31.685Z,40.80
2023-05-17T12:05:00.059Z,39.90
2023-05-17T12:07:28.712Z,43.10
2023-05-17T12:09:56.766Z,44.70
2023-05-17T12:12:24.768Z,40.10
2023-05-17T12:14:54.351Z,43.30
2023-05-17T12:17:30.911Z,41.20
2023-05-17T12:20:08.235Z,42.00
2023-05-17T12:22:52.128Z,38.40
2023-05-17T12:25:20.874Z,41.20
2023-05-17T12:27:50.350Z,42.50
2023-05-17T12:30:20.561Z,42.60
2023-05-17T12:32:48.830Z,40.40
2023-05-17T12:35:17.139Z,41.90
2023-05-17T12:37:45.551Z,39.40
2023-05-17T12:40:14.019Z,41.60
2023-05-17T12:42:43.823Z,38.20
2023-05-17T12:45:13.634Z,43.40
2023-05-17T12:47:43.983Z,41.30
2023-05-17T12:50:12.847Z,39.70
2023-05-17T12:52:42.119Z,40.10
2023-05-17T12:55:14.567Z,38.70
2023-05-17T12:57:50.628Z,38.50
2023-05-17T13:00:19.764Z,38.50
2023-05-17T13:02:49.489Z,40.70
2023-05-17T13:05:18.685Z,40.30
2023-05-17T13:07:47.472Z,41.10
2023-05-17T13:10:22.899Z,39.20
2023-05-17T13:12:57.984Z,40.60
2023-05-17T13:15:35.116Z,38.90
2023-05-17T13:18:14.712Z,39.00
2023-05-17T13:20:42.751Z,37.90
2023-05-17T13:23:11.217Z,39.90
2023-05-17T13:25:39.281Z,41.90
2023-05-17T13:28:07.235Z,41.00
2023-05-17T13:30:35.583Z,44.30
2023-05-17T13:33:05.365Z,41.60
2023-05-17T13:35:33.382Z,43.90
2023-05-17T13:38:01.374Z,41.20
2023-05-17T13:40:29.524Z,41.90
2023-05-17T13:42:57.582Z,41.30
2023-05-17T13:45:25.704Z,38.80
2023-05-17T13:47:53.770Z,42.50
2023-05-17T13:50:24.019Z,38.50
2023-05-17T13:52:52.166Z,41.60
2023-05-17T13:55:20.256Z,39.00
2023-05-17T13:57:48.202Z,40.70
2023-05-17T14:00:17.214Z,42.40
2023-05-17T14:02:45.262Z,40.80
2023-05-17T14:05:14.910Z,38.60
2023-05-17T14:07:44.287Z,39.60
2023-05-17T14:10:13.280Z,40.90
2023-05-17T14:12:42.103Z,39.70
2023-05-17T14:15:11.734Z,39.00
2023-05-17T14:17:39.715Z,42.30
2023-05-17T14:20:09.816Z,42.60
2023-05-17T14:22:38.038Z,41.00
2023-05-17T14:25:08.760Z,41.80
2023-05-17T14:27:36.731Z,41.20
2023-05-17T14:30:05.180Z,42.30
2023-05-17T14:32:35.292Z,41.60
2023-05-17T14:35:03.366Z,45.00
2023-05-17T14:37:31.295Z,40.60
2023-05-17T14:40:06.304Z,41.70
2023-05-17T14:42:36.559Z,40.70
2023-05-17T14:45:04.984Z,41.60
2023-05-17T14:47:35.123Z,38.70
2023-05-17T14:50:04.524Z,39.60
2023-05-17T14:52:32.474Z,40.10
2023-05-17T14:55:00.605Z,39.10
2023-05-17T14:57:28.569Z,39.70
2023-05-17T14:59:57.897Z,39.50
2023-05-17T15:02:25.900Z,39.30
2023-05-17T15:04:53.998Z,39.00
2023-05-17T15:07:22.067Z,43.30
2023-05-17T15:09:50.063Z,40.40
2023-05-17T15:12:18.012Z,40.40
2023-05-17T15:14:46.557Z,38.70
2023-05-17T15:17:16.776Z,39.80
2023-05-17T15:19:44.994Z,40.90
2023-05-17T15:22:13.058Z,39.40
2023-05-17T15:24:41.224Z,39.10
2023-05-17T15:27:12.682Z,40.30
2023-05-17T15:29:42.162Z,37.40
2023-05-17T15:32:10.213Z,37.70
2023-05-17T15:34:39.656Z,37.70
2023-05-17T15:37:07.660Z,39.30
2023-05-17T15:39:35.727Z,40.50
2023-05-17T15:42:03.680Z,39.60
2023-05-17T15:44:31.625Z,37.70
2023-05-17T15:47:02.324Z,38.60
2023-05-17T15:49:31.548Z,35.70
2023-05-17T15:52:00.885Z,32.90
2023-05-17T15:54:28.851Z,33.60
2023-05-17T15:56:56.808Z,34.70
2023-05-17T15:59:24.741Z,37.60
2023-05-17T16:01:52.763Z,37.80
2023-05-17T16:04:20.750Z,37.80
2023-05-17T16:06:48.757Z,36.80
2023-05-17T16:09:18.059Z,37.40
2023-05-17T16:11:46.242Z,33.50
2023-05-17T16:14:14.157Z,33.00
2023-05-17T16:16:43.918Z,31.80
2023-05-17T16:19:13.641Z,28.20
2023-05-17T16:21:41.745Z,31.60
2023-05-17T16:24:09.873Z,31.70
2023-05-17T16:26:39.510Z,31.50
2023-05-17T16:29:07.435Z,33.40
2023-05-17T16:31:35.718Z,31.90
2023-05-17T16:34:03.902Z,32.20
2023-05-17T16:36:32.056Z,34.90
2023-05-17T16:38:59.992Z,34.40
2023-05-17T16:41:28.690Z,36.90
2023-05-17T16:43:58.243Z,39.00
2023-05-17T16:46:26.334Z,39.10
2023-05-17T16:48:55.475Z,36.30
2023-05-17T16:51:24.221Z,36.30
2023-05-17T16:53:52.155Z,35.70
2023-05-17T16:56:20.125Z,36.50
2023-05-17T16:58:48.096Z,35.70
2023-05-17T17:01:17.549Z,34.30
2023-05-17T17:03:45.640Z,34.50
2023-05-17T17:06:13.644Z,34.70
2023-05-17T17:08:41.812Z,34.00
2023-05-17T17:11:09.814Z,33.90
2023-05-17T17:13:37.987Z,33.80
2023-05-17T17:16:06.874Z,34.40
2023-05-17T17:18:36.279Z,36.10
2023-05-17T17:21:07.528Z,36.50
2023-05-17T17:23:35.837Z,36.40
2023-05-17T17:26:03.806Z,35.10
2023-05-17T17:28:31.853Z,35.40
2023-05-17T17:30:59.779Z,35.90
2023-05-17T17:33:27.863Z,36.30
2023-05-17T17:35:57.386Z,36.60
2023-05-17T17:38:25.593Z,37.10
2023-05-17T17:40:53.536Z,37.20
2023-05-17T17:43:21.548Z,36.80
2023-05-17T17:45:49.526Z,38.00
2023-05-17T17:48:17.578Z,37.80
2023-05-17T17:50:45.670Z,39.20
2023-05-17T17:53:15.036Z,37.70
2023-05-17T17:55:42.988Z,39.70
2023-05-17T17:58:11.347Z,39.40
2023-05-17T18:00:39.863Z,39.30
2023-05-17T18:03:07.867Z,38.80
2023-05-17T18:05:36.025Z,39.10
2023-05-17T18:08:03.998Z,39.30
2023-05-17T18:10:33.506Z,40.80
2023-05-17T18:13:01.532Z,41.60
2023-05-17T18:15:29.489Z,41.40
2023-05-17T18:17:57.498Z,44.80
2023-05-17T18:20:26.265Z,42.90
2023-05-17T18:22:54.654Z,46.90
2023-05-17T18:25:22.979Z,45.70
2023-05-17T18:27:52.272Z,47.90
2023-05-17T18:30:20.450Z,50.60
2023-05-17T18:32:48.414Z,50.70
2023-05-17T18:35:16.481Z,50.80
2023-05-17T18:37:44.508Z,52.80
2023-05-17T18:40:13.826Z,52.10
2023-05-17T18:42:41.832Z,52.70
2023-05-17T18:45:11.976Z,52.90
2023-05-17T18:47:39.987Z,51.70
2023-05-17T18:50:09.109Z,52.30
2023-05-17T18:52:37.078Z,54.90
2023-05-17T18:55:05.396Z,56.10
2023-05-17T18:57:33.338Z,56.00
2023-05-17T19:00:01.404Z,56.40
2023-05-17T19:02:31.158Z,56.50
2023-05-17T19:04:59.148Z,57.00
2023-05-17T19:07:27.150Z,57.70
2023-05-17T19:09:55.215Z,58.10
2023-05-17T19:12:23.166Z,56.90
2023-05-17T19:14:51.111Z,58.50
2023-05-17T19:17:19.160Z,58.70
2023-05-17T19:19:48.525Z,58.90
2023-05-17T19:22:16.552Z,57.80
2023-05-17T19:24:44.531Z,59.10
2023-05-17T19:27:16.834Z,60.60
2023-05-17T19:29:44.820Z,61.60
2023-05-17T19:32:12.799Z,61.50
2023-05-17T19:34:40.901Z,62.70
2023-05-17T19:37:10.236Z,61.90
2023-05-17T19:39:38.221Z,63.60
2023-05-17T19:42:06.541Z,63.70
2023-05-17T19:44:34.550Z,64.70
2023-05-17T19:47:02.607Z,65.20
2023-05-17T19:49:30.574Z,65.10
2023-05-17T19:52:00.691Z,65.40
2023-05-17T19:54:30.630Z,65.00
2023-05-17T19:56:59.912Z,65.40
2023-05-17T19:59:27.904Z,66.00
2023-05-17T20:01:55.997Z,66.50
2023-05-17T20:04:24.090Z,66.00
2023-05-17T20:06:52.501Z,67.00
2023-05-17T20:09:20.657Z,66.60
2023-05-17T20:11:51.163Z,66.00
2023-05-17T20:14:19.231Z,65.90
2023-05-17T20:16:47.245Z,65.90
2023-05-17T20:19:15.322Z,66.40
2023-05-17T20:21:43.452Z,66.40
2023-05-17T20:24:11.479Z,66.00
2023-05-17T20:26:39.593Z,65.90
2023-05-17T20:29:09.489Z,65.90
2023-05-17T20:31:37.967Z,66.30
2023-05-17T20:34:06.500Z,66.10
2023-05-17T20:36:34.619Z,66.00
2023-05-17T20:39:03.343Z,67.60
2023-05-17T20:41:31.320Z,67.30
2023-05-17T20:43:59.291Z,67.20
2023-05-17T20:46:29.897Z,68.10
2023-05-17T20:48:58.116Z,68.60
2023-05-17T20:51:27.298Z,68.00
2023-05-17T20:53:55.592Z,68.60
2023-05-17T20:56:23.546Z,69.70
2023-05-17T20:58:51.496Z,69.80
2023-05-17T21:01:19.512Z,70.40
2023-05-17T21:03:51.174Z,70.40
2023-05-17T21:06:19.328Z,71.40
2023-05-17T21:08:47.528Z,71.60
2023-05-17T21:11:20.877Z,71.90
2023-05-17T21:13:48.981Z,70.60
2023-05-17T21:16:17.129Z,69.70
2023-05-17T21:18:45.273Z,70.80
2023-05-17T21:21:14.739Z,72.10
2023-05-17T21:23:42.727Z,73.30
2023-05-17T21:26:11.094Z,73.40
2023-05-17T21:28:39.049Z,74.20
2023-05-17T21:31:07.307Z,74.50
2023-05-17T21:33:35.404Z,74.60
2023-05-17T21:36:03.514Z,74.90
2023-05-17T21:38:32.856Z,75.20
2023-05-17T21:41:00.794Z,75.70
2023-05-17T21:43:28.899Z,75.80
2023-05-17T21:45:56.845Z,76.20
2023-05-17T21:48:25.300Z,76.60
2023-05-17T21:50:53.316Z,76.50
2023-05-17T21:53:21.246Z,76.70
2023-05-17T21:56:01.510Z,77.20
2023-05-17T21:58:31.653Z,76.90
2023-05-17T22:00:59.669Z,77.30
2023-05-17T22:03:27.732Z,77.40
2023-05-17T22:05:55.781Z,77.30
2023-05-17T22:08:23.709Z,77.60
2023-05-17T22:10:54.283Z,76.60
2023-05-17T22:13:26.090Z,77.20
2023-05-17T22:15:57.393Z,77.40
2023-05-17T22:18:27.053Z,77.90
2023-05-17T22:20:58.979Z,77.50
2023-05-17T22:23:27.090Z,77.70
2023-05-17T22:26:00.050Z,77.60
2023-05-17T22:28:28.316Z,77.80
2023-05-17T22:30:56.277Z,77.50
2023-05-17T22:33:24.240Z,77.00
2023-05-17T22:35:53.661Z,77.90
2023-05-17T22:38:23.241Z,78.30
2023-05-17T22:40:51.308Z,78.80
2023-05-17T22:43:22.256Z,78.70
2023-05-17T22:45:51.020Z,78.70
2023-05-17T22:48:19.904Z,78.80
2023-05-17T22:50:48.096Z,79.00
2023-05-17T22:53:18.701Z,79.10
2023-05-17T22:55:48.901Z,79.40
2023-05-17T22:58:17.001Z,79.40
2023-05-17T23:00:46.490Z,79.60
2023-05-17T23:03:15.146Z,79.40
2023-05-17T23:05:43.288Z,79.40
2023-05-17T23:08:12.818Z,79.50
2023-05-17T23:10:40.812Z,79.30
2023-05-17T23:13:08.846Z,79.20
2023-05-17T23:15:37.151Z,79.50
2023-05-17T23:18:06.681Z,79.70
2023-05-17T23:20:35.890Z,79.80
2023-05-17T23:23:04.073Z,80.20
2023-05-17T23:25:32.273Z,80.30
2023-05-17T23:28:00.337Z,80.20
2023-05-17T23:30:29.614Z,80.10
2023-05-17T23:32:57.822Z,79.80
2023-05-17T23:35:27.558Z,80.10
2023-05-17T23:37:55.902Z,80.30
2023-05-17T23:40:23.895Z,80.40
2023-05-17T23:42:52.034Z,80.50
2023-05-17T23:45:19.993Z,80.70
2023-05-17T23:47:50.126Z,81.10
2023-05-17T23:50:18.193Z,81.10
2023-05-17T23:52:47.525Z,81.20
2023-05-17T23:55:15.540Z,81.20
2023-05-17T23:57:43.665Z,81.00
